Latest Coastal Weather Observations for Maroochydore

IDQ60701

Issued at 2:25 am EST Saturday 25 October 2014 (issued every 10 minutes, with the page automatically refreshed every 10 minutes)

About coastal observations | Map of coastal stations | Coastal observations for QLD | Marine services | Other Formats
Station Details ID: 040861 Name: SUNSHINE COAST AIRPORT Lat: -26.60 Lon: 153.09 Height: 3.3 m
Data from the previous 72 hours. | See also: Recent months at Maroochydore
Date/Time
EST
Temp

°C
Wind Pressure Rain
since 9am
mm
Weather Cloud Vis
km
Sea
Height
m
Swell
Dir
 
Speed
knots
Gust
knots
hPa Trend Height
m
Period
s
Dir
25/02:00am 14.0 WNW 5 6 1019.3 - 0.0 - - 10 - - - -
25/01:30am 14.0 W 3 4 1019.8 - 0.0 - - 10 - - - -
25/01:00am 13.9 W 5 6 1020.3 - 0.0 - - 10 - - - -
25/12:30am 14.0 WNW 6 6 1020.7 - 0.0 - - 10 - - - -
25/12:00am 14.1 NW 4 6 1021.1 - 0.0 - - 10 - - - -
 
Date/Time
EST
Temp

°C
Wind Pressure Rain
since 9am
mm
Weather Cloud Vis
km
Sea
Height
m
Swell
Dir
 
Speed
knots
Gust
knots
hPa Trend Height
m
Period
s
Dir
24/11:30pm 14.4 WNW 4 5 1021.7 - 0.0 - - 10 - - - -
24/11:00pm 14.7 WNW 3 4 1021.9 - 0.0 - - 10 - - - -
24/10:30pm 15.2 WNW 4 5 1022.2 - 0.0 - - 10 - - - -
24/10:00pm 16.0 W 6 6 1022.5 - 0.0 - - 10 - - - -
24/09:30pm 16.3 NNW 6 7 1022.3 - 0.0 - - 10 - - - -
24/09:00pm 16.5 NW 6 6 1022.4 - 0.0 - - 10 - - - -
24/08:30pm 17.1 NW 6 7 1022.5 - 0.0 - - 10 - - - -
24/08:00pm 18.2 NW 5 6 1022.4 - 0.0 - - 10 - - - -
24/07:30pm 19.9 N 10 14 1022.2 - 0.0 - - 10 - - - -
24/07:00pm 20.0 N 11 15 1021.6 - 0.0 - - 10 - - - -
24/06:30pm 20.2 N 11 14 1021.3 - 0.0 - - 10 - - - -
24/06:00pm 20.7 NNE 13 15 1021.0 - 0.0 - - 10 - - - -
24/05:30pm 21.2 NNE 12 15 1020.9 - 0.0 - - 10 - - - -
24/05:00pm 22.0 NNE 12 15 1020.6 - 0.0 - - 10 - - - -
24/04:30pm 22.8 NNE 12 14 1020.4 - 0.0 - - 10 - - - -
24/04:00pm 23.2 NE 12 15 1020.1 - 0.0 - - 10 - - - -
24/03:30pm 23.8 NE 12 15 1020.2 - 0.0 - - 10 - - - -
24/03:00pm 24.4 NE 12 15 1020.2 - 0.0 - - 10 - - - -
24/02:30pm 24.3 NE 12 15 1020.4 - 0.0 - - 10 - - - -
24/02:00pm 25.0 NE 12 15 1020.4 - 0.0 - - 10 - - - -
24/01:30pm 25.3 NE 12 15 1020.6 - 0.0 - - 10 - - - -
24/01:00pm 25.7 NE 12 15 1021.1 - 0.0 - - 10 - - - -
24/12:30pm 24.9 NE 12 15 1021.3 - 0.0 - - 10 - - - -
24/12:00pm 25.5 NE 11 14 1021.7 - 0.0 - - 10 - - - -
24/11:30am 25.1 NE 11 14 1021.8 - 0.0 - - 10 - - - -
24/11:00am 25.4 NE 9 12 1022.2 - 0.0 - - 10 - - - -
24/10:30am 24.9 NE 9 11 1022.5 - 0.0 - - 10 - - - -
24/10:00am 24.9 NE 8 11 1022.8 - 0.0 - Partly cloudy 10 - - - -
24/09:30am 25.4 NE 8 10 1023.1 - 0.0 - Partly cloudy 10 - - - -
24/09:00am 24.3 ENE 6 10 1023.2 - 0.0 - Mostly cloudy 10 - - - -
24/08:30am 22.7 NNW 2 6 1023.2 - 0.0 - Cloudy 10 - - - -
24/08:00am 22.1 W 4 6 1023.1 - 0.0 - Cloudy 10 - - - -
24/07:30am 20.5 W 4 6 1022.7 - 0.0 - Partly cloudy 10 - - - -
24/07:00am 17.4 W 5 6 1022.4 - 0.0 - Partly cloudy 10 - - - -
24/06:30am 15.4 W 4 5 1022.3 - 0.0 - Cloudy 10 - - - -
24/06:00am 13.8 W 4 4 1022.2 - 0.0 - - 10 - - - -
24/05:30am 13.2 W 4 4 1021.9 - 0.0 - - 10 - - - -
24/05:00am 13.4 WSW 4 5 1021.7 - 0.0 - Partly cloudy 10 - - - -
24/04:30am 13.3 WSW 5 5 1021.3 - 0.0 - Partly cloudy 10 - - - -
24/04:00am 12.7 SW 3 4 1020.8 - 0.0 - - 10 - - - -
24/03:30am 12.9 WSW 3 4 1020.6 - 0.0 - - 10 - - - -
24/03:00am 13.3 WNW 4 6 1020.8 - 0.0 - - 10 - - - -
24/02:30am 13.5 W 5 6 1020.7 - 0.0 - - 10 - - - -
24/02:00am 13.7 WNW 2 5 1020.8 - 0.0 - Partly cloudy 10 - - - -
24/01:30am 14.0 WNW 5 6 1020.8 - 0.0 - Partly cloudy 10 - - - -
24/01:00am 14.1 W 4 5 1021.1 - 0.0 - Partly cloudy 10 - - - -
24/12:30am 14.4 W 4 4 1021.4 - 0.0 - Partly cloudy 10 - - - -
24/12:00am 14.7 W 5 7 1021.8 - 0.0 - Mostly clear 10 - - - -
 
Date/Time
EST
Temp

°C
Wind Pressure Rain
since 9am
mm
Weather Cloud Vis
km
Sea
Height
m
Swell
Dir
 
Speed
knots
Gust
knots
hPa Trend Height
m
Period
s
Dir
23/11:30pm 14.7 WSW 2 3 1021.7 - 0.0 - Partly cloudy 10 - - - -
23/11:00pm 15.0 WSW 3 4 1021.8 - 0.0 - - 10 - - - -
23/10:30pm 15.5 SW 2 4 1021.9 - 0.0 - - 10 - - - -
23/10:00pm 15.9 SW 3 5 1022.0 - 0.0 - - 10 - - - -
23/09:30pm 16.6 W 4 6 1021.6 - 0.0 - - 10 - - - -
23/09:00pm 19.3 NNE 9 12 1021.4 - 0.0 - - 10 - - - -
23/08:30pm 19.2 NNE 9 11 1021.2 - 0.0 - - 10 - - - -
23/08:00pm 19.5 NNE 9 13 1020.8 - 0.0 - - 10 - - - -
23/07:30pm 19.6 NNE 10 12 1020.5 - 0.0 - - 10 - - - -
23/07:00pm 19.2 NNE 9 12 1020.3 - 0.0 - - 10 - - - -
23/06:30pm 19.5 NNE 8 11 1020.0 - 0.0 - - 10 - - - -
23/06:00pm 20.0 NNE 11 13 1019.4 - 0.0 - - 10 - - - -
23/05:30pm 20.7 NNE 11 14 1019.0 - 0.0 - - 10 - - - -
23/05:00pm 21.5 NNE 10 14 1018.8 - 0.0 - - 10 - - - -
23/04:30pm 22.3 NNE 11 13 1018.6 - 0.0 - - 10 - - - -
23/04:00pm 22.8 NNE 11 14 1018.4 - 0.0 - - 10 - - - -
23/03:30pm 23.7 NE 10 13 1018.2 - 0.0 - - 10 - - - -
23/03:00pm 23.9 NE 10 13 1018.4 - 0.0 - - 10 - - - -
23/02:30pm 24.2 NE 11 13 1018.6 - 0.0 - - 10 - - - -
23/02:00pm 24.4 ENE 10 13 1018.7 - 0.0 - - 10 - - - -
23/01:30pm 24.6 NE 10 13 1019.1 - 0.0 - - 10 - - - -
23/01:00pm 23.7 ENE 11 13 1019.6 - 0.0 - - 10 - - - -
23/12:30pm 24.8 ENE 10 13 1020.1 - 0.0 - - 10 - - - -
23/12:00pm 24.0 ENE 10 13 1020.6 - 0.0 - - 10 - - - -
23/11:30am 23.9 ENE 9 12 1021.2 - 0.0 - - 10 - - - -
23/11:00am 23.0 E 9 11 1021.7 - 0.0 - - 10 - - - -
23/10:30am 22.8 ENE 8 11 1021.9 - 0.0 - - 10 - - - -
23/10:00am 23.6 ENE 6 9 1022.4 - 0.0 - - 10 - - - -
23/09:30am 22.8 E 5 8 1022.5 - 0.0 - - 10 - - - -
23/09:00am 23.0 E 5 7 1022.6 - 0.0 - - 10 - - - -
23/08:30am 22.4 ESE 5 7 1022.6 - 0.0 - - 10 - - - -
23/08:00am 21.9 SE 3 6 1022.5 - 0.0 - - 10 - - - -
23/07:30am 20.4 WSW 5 6 1022.5 - 0.0 - - 10 - - - -
23/07:00am 18.4 W 4 6 1022.5 - 0.0 - - 10 - - - -
23/06:30am 16.3 W 4 5 1022.2 - 0.0 - Partly cloudy 10 - - - -
23/06:00am 14.2 W 3 4 1022.2 - 0.0 - Mostly clear 10 - - - -
23/05:30am 12.4 WNW 4 5 1022.1 - 0.0 - - 10 - - - -
23/05:00am 12.8 WNW 5 6 1021.9 - 0.0 - Partly cloudy 10 - - - -
23/04:30am 13.4 W 3 4 1021.7 - 0.0 - Partly cloudy 10 - - - -
23/04:00am 13.7 WSW 3 4 1021.6 - 0.0 - Partly cloudy 10 - - - -
23/03:30am 14.3 W 5 6 1021.4 - 0.0 - Cloudy 10 - - - -
23/03:00am 14.6 W 6 7 1021.3 - 0.0 - Partly cloudy 10 - - - -
23/02:30am 14.8 WSW 5 6 1021.2 - 0.0 - Partly cloudy 10 - - - -
23/02:00am 15.5 WSW 4 6 1021.4 - 0.0 - Partly cloudy 10 - - - -
23/01:30am 18.8 ESE 8 11 1021.6 - 0.0 - - 10 - - - -
23/01:00am 19.0 ESE 8 11 1021.8 - 0.0 - Partly cloudy 10 - - - -
23/12:30am 19.4 ESE 8 11 1022.2 - 0.0 - Partly cloudy 10 - - - -
23/12:00am 19.7 ESE 9 11 1022.5 - 0.0 - Cloudy 10 - - - -
 
Date/Time
EST
Temp

°C
Wind Pressure Rain
since 9am
mm
Weather Cloud Vis
km
Sea
Height
m
Swell
Dir
 
Speed
knots
Gust
knots
hPa Trend Height
m
Period
s
Dir
22/11:30pm 19.5 ESE 7 11 1022.8 - 0.0 - Partly cloudy 10 - - - -
22/11:00pm 19.8 ESE 8 11 1023.1 - 0.0 - Cloudy 10 - - - -
22/10:30pm 19.8 E 9 11 1023.2 - 0.0 - Partly cloudy 10 - - - -
22/10:00pm 19.9 E 10 14 1023.3 - 0.0 - Partly cloudy 10 - - - -
22/09:30pm 19.9 ESE 11 15 1023.4 - 0.0 - Partly cloudy 10 - - - -
22/09:00pm 19.9 ESE 10 14 1023.5 - 0.0 - Cloudy 10 - - - -
22/08:30pm 19.8 ESE 11 15 1023.4 - 0.0 - Partly cloudy 10 - - - -
22/08:00pm 19.6 ESE 11 15 1023.3 - 0.0 - Partly cloudy 10 - - - -
22/07:30pm 19.9 SE 11 15 1023.3 - 0.0 - Partly cloudy 10 - - - -
22/07:00pm 19.9 ESE 11 15 1023.1 - 0.0 - Partly cloudy 10 - - - -
22/06:30pm 19.9 SE 11 16 1022.9 - 0.0 - Partly cloudy 10 - - - -
22/06:00pm 19.7 SE 12 17 1022.8 - 0.0 - Mostly clear 10 - - - -
22/05:30pm 20.1 SE 12 17 1022.7 - 0.0 - - 10 - - - -
22/05:00pm 20.5 SE 12 16 1022.6 - 0.0 - Partly cloudy 10 - - - -
22/04:30pm 21.2 ESE 12 18 1022.5 - 0.0 - - 10 - - - -
22/04:00pm 21.9 SE 13 19 1022.4 - 0.0 - - 10 - - - -
22/03:30pm 22.2 SE 13 17 1022.3 - 0.0 - - 10 - - - -
22/03:00pm 22.1 ESE 13 18 1022.3 - 0.0 - Mostly clear 10 - - - -
22/02:30pm 22.8 ESE 14 19 1022.6 - 0.0 - Partly cloudy 10 - - - -
22/02:00pm 23.3 SE 13 18 1022.9 - 0.0 - Partly cloudy 10 - - - -
22/01:30pm 23.5 SE 13 17 1023.0 - 0.0 - Partly cloudy 10 - - - -
22/01:00pm 23.0 SE 14 19 1023.3 - 0.0 - Partly cloudy 10 - - - -
22/12:30pm 22.8 SE 14 18 1023.6 - 0.0 - Partly cloudy 10 - - - -
22/12:00pm 23.0 SE 13 17 1024.1 - 0.0 - Mostly clear 10 - - - -
22/11:30am 21.3 SSE 13 19 1024.4 - 0.0 - Partly cloudy 10 - - - -
22/11:00am 21.8 SSE 13 18 1024.8 - 0.0 - Partly cloudy 10 - - - -
22/10:30am 23.2 SE 10 15 1025.1 - 0.0 - Partly cloudy 10 - - - -
22/10:00am 21.1 SSE 13 17 1025.1 - 0.0 - Partly cloudy 10 - - - -
22/09:30am 22.2 ESE 13 17 1025.2 - 0.0 - Partly cloudy 10 - - - -
22/09:00am 21.8 SSE 11 15 1025.2 - 9.0 - Mostly clear 10 - - - -
22/08:30am 21.3 S 11 15 1025.3 - 9.0 - Partly cloudy 10 - - - -
22/08:00am 19.5 S 11 16 1025.3 - 9.0 - Partly cloudy 10 - - - -
22/07:30am 18.1 S 9 12 1025.0 - 9.0 - Partly cloudy 10 - - - -
22/07:00am 17.4 SSW 10 14 1024.8 - 9.0 - Partly cloudy 10 - - - -
22/06:30am 16.7 S 10 15 1024.6 - 9.0 - Partly cloudy 10 - - - -
22/06:00am 16.5 S 9 11 1024.4 - 9.0 - Mostly cloudy 10 - - - -
22/05:30am 16.2 SSW 9 13 1024.2 - 9.0 - Partly cloudy 10 - - - -
22/05:00am 16.2 SSW 9 13 1024.0 - 9.0 - Partly cloudy 10 - - - -
22/04:58am 16.1 SSW 8 13 1024.0 - 9.0 - Partly cloudy 10 - - - -
22/04:45am 16.2 S 10 14 1023.8 - 9.0 - Partly cloudy 10 - - - -
22/04:30am 16.1 SSW 8 11 1023.7 - 8.8 - Partly cloudy 10 - - - -
22/04:00am 16.4 SSW 9 13 1023.8 - 8.8 - Partly cloudy 10 - - - -
22/03:30am 16.7 S 5 12 1023.8 - 8.8 - Partly cloudy 10 - - - -
22/03:26am 16.6 SSE 4 5 1023.9 - 8.8 - Partly cloudy 10 - - - -
22/03:15am 16.6 S 9 15 1023.9 - 8.6 - Partly cloudy 8 - - - -
22/03:08am 16.5 S 11 16 1024.1 - 8.6 - Partly cloudy 8 - - - -
22/03:00am 16.5 S 10 13 1024.1 - 8.6 - Cloudy 5 - - - -
22/02:58am 16.6 S 10 13 1024.2 - 8.4 - Partly cloudy 6 - - - -
22/02:30am 16.6 SSW 9 13 1024.3 - 7.4 - Partly cloudy 10 - - - -

Other Formats:

Comma delimited format used in spreadsheet applications
http://www.bom.gov.au/fwo/IDQ60701/IDQ60701.94569.axf

JavaScript Object Notation format (JSON) in row-major order
http://www.bom.gov.au/fwo/IDQ60701/IDQ60701.94569.json